createdAt,value
2022-08-14T00:02:24.508Z,12.90
2022-08-14T00:17:27.432Z,12.00
2022-08-14T00:32:51.703Z,15.20
2022-08-14T00:47:33.133Z,16.10
2022-08-14T01:02:38.220Z,14.10
2022-08-14T01:17:44.044Z,16.10
2022-08-14T01:32:50.969Z,16.30
2022-08-14T01:47:51.475Z,16.40
2022-08-14T02:02:52.906Z,16.00
2022-08-14T02:17:53.415Z,14.90
2022-08-14T02:32:53.492Z,14.80
2022-08-14T02:47:57.422Z,15.00
2022-08-14T03:02:59.431Z,14.20
2022-08-14T03:17:59.930Z,12.90
2022-08-14T03:33:00.033Z,12.10
2022-08-14T03:48:01.859Z,12.60
2022-08-14T04:03:03.189Z,13.60
2022-08-14T04:18:03.292Z,12.50
2022-08-14T04:33:07.386Z,15.60
2022-08-14T04:48:10.418Z,14.90
2022-08-14T05:03:10.671Z,15.30
2022-08-14T05:18:17.425Z,15.60
2022-08-14T05:33:18.120Z,14.50
2022-08-14T05:48:32.679Z,13.10
2022-08-14T06:03:23.812Z,11.90
2022-08-14T06:18:26.697Z,10.30
2022-08-14T06:35:11.452Z,10.50
2022-08-14T06:48:37.892Z,11.00
2022-08-14T07:03:42.459Z,10.70
2022-08-14T07:18:43.207Z,9.90
2022-08-14T07:33:45.639Z,9.40
2022-08-14T07:48:53.171Z,9.90
2022-08-14T08:03:53.430Z,8.70
2022-08-14T08:19:02.913Z,7.90
2022-08-14T08:34:05.107Z,7.90
2022-08-14T08:49:06.710Z,7.50
2022-08-14T09:04:17.292Z,6.40
2022-08-14T09:19:12.852Z,11.00
2022-08-14T09:34:26.940Z,349.10
2022-08-14T09:49:18.049Z,999.90
2022-08-14T10:04:32.801Z,999.90
2022-08-14T10:19:25.765Z,999.90
2022-08-14T10:34:35.635Z,999.90
2022-08-14T10:49:35.408Z,999.90
2022-08-14T11:04:37.453Z,999.90
2022-08-14T11:19:39.593Z,999.90
2022-08-14T11:34:39.805Z,999.90
2022-08-14T11:49:41.206Z,999.90
2022-08-14T12:04:41.282Z,999.90
2022-08-14T12:19:42.367Z,999.90
2022-08-14T12:34:45.439Z,999.90
2022-08-14T12:49:46.026Z,999.90
2022-08-14T13:04:46.155Z,999.90
2022-08-14T13:19:46.208Z,999.90
2022-08-14T13:34:49.068Z,999.90
2022-08-14T13:49:57.869Z,999.90
2022-08-14T14:04:58.264Z,999.90
2022-08-14T14:20:01.010Z,999.90
2022-08-14T14:35:05.039Z,999.90
2022-08-14T14:50:06.103Z,468.00
2022-08-14T15:05:06.702Z,999.90
2022-08-14T15:20:07.319Z,999.90
2022-08-14T15:35:09.696Z,999.90
2022-08-14T15:50:12.254Z,999.90
2022-08-14T16:05:13.857Z,999.90
2022-08-14T16:20:41.151Z,999.90
2022-08-14T16:35:23.523Z,999.90
2022-08-14T16:50:43.309Z,999.90
2022-08-14T17:05:30.973Z,563.80
2022-08-14T17:20:44.398Z,842.00
2022-08-14T17:50:58.391Z,541.70
2022-08-14T18:06:07.604Z,938.70
2022-08-14T18:21:40.316Z,864.60
2022-08-14T18:36:46.548Z,978.10
2022-08-14T18:51:06.800Z,999.90
2022-08-14T19:06:08.827Z,999.90
2022-08-14T19:21:13.351Z,999.90
2022-08-14T19:36:29.275Z,999.90
2022-08-14T19:52:20.611Z,999.90
2022-08-14T20:07:15.424Z,278.30
2022-08-14T20:22:36.386Z,295.40
2022-08-14T20:37:22.743Z,419.00
2022-08-14T20:52:24.233Z,113.40
2022-08-14T21:07:36.333Z,55.20
2022-08-14T21:22:31.968Z,35.40
2022-08-14T21:37:35.589Z,22.70
2022-08-14T21:52:50.619Z,23.30
2022-08-14T22:07:41.168Z,18.60
2022-08-14T22:22:44.429Z,20.20
2022-08-14T22:37:45.131Z,10.90
2022-08-14T22:52:49.382Z,11.20
2022-08-14T23:08:59.357Z,9.90
2022-08-14T23:22:57.031Z,11.10
2022-08-14T23:37:58.154Z,11.10
2022-08-14T23:53:07.448Z,11.80
